sensor_id;sensor_type;location;lat;lon;timestamp;P1;durP1;ratioP1;P2;durP2;ratioP2
25657;SDS011;13517;59.320;18.042;2024-01-27T00:00:16;6.75;;;2.92;;
25657;SDS011;13517;59.320;18.042;2024-01-27T00:02:43;5.35;;;3.15;;
25657;SDS011;13517;59.320;18.042;2024-01-27T00:05:08;7.00;;;3.30;;
25657;SDS011;13517;59.320;18.042;2024-01-27T00:07:34;6.85;;;3.33;;
25657;SDS011;13517;59.320;18.042;2024-01-27T00:09:59;9.00;;;3.80;;
25657;SDS011;13517;59.320;18.042;2024-01-27T00:12:25;10.13;;;4.55;;
25657;SDS011;13517;59.320;18.042;2024-01-27T00:14:51;9.82;;;4.05;;
25657;SDS011;13517;59.320;18.042;2024-01-27T00:17:16;8.13;;;3.97;;
25657;SDS011;13517;59.320;18.042;2024-01-27T00:19:42;7.78;;;4.20;;
25657;SDS011;13517;59.320;18.042;2024-01-27T00:22:08;10.75;;;4.80;;
25657;SDS011;13517;59.320;18.042;2024-01-27T00:24:33;9.23;;;4.55;;
25657;SDS011;13517;59.320;18.042;2024-01-27T00:26:59;8.90;;;4.82;;
25657;SDS011;13517;59.320;18.042;2024-01-27T00:29:25;8.60;;;4.10;;
25657;SDS011;13517;59.320;18.042;2024-01-27T00:31:50;8.40;;;4.43;;
25657;SDS011;13517;59.320;18.042;2024-01-27T00:34:16;7.57;;;4.20;;
25657;SDS011;13517;59.320;18.042;2024-01-27T00:36:42;12.43;;;5.40;;
25657;SDS011;13517;59.320;18.042;2024-01-27T00:39:13;7.63;;;4.68;;
25657;SDS011;13517;59.320;18.042;2024-01-27T00:41:42;14.15;;;5.80;;
25657;SDS011;13517;59.320;18.042;2024-01-27T00:44:08;8.57;;;4.93;;
25657;SDS011;13517;59.320;18.042;2024-01-27T00:46:34;8.75;;;5.13;;
25657;SDS011;13517;59.320;18.042;2024-01-27T00:48:59;9.63;;;5.00;;
25657;SDS011;13517;59.320;18.042;2024-01-27T00:51:25;9.25;;;5.53;;
25657;SDS011;13517;59.320;18.042;2024-01-27T00:53:50;10.05;;;5.32;;
25657;SDS011;13517;59.320;18.042;2024-01-27T00:56:15;8.63;;;5.05;;
25657;SDS011;13517;59.320;18.042;2024-01-27T00:58:41;8.40;;;4.65;;
25657;SDS011;13517;59.320;18.042;2024-01-27T01:01:06;8.30;;;3.33;;
25657;SDS011;13517;59.320;18.042;2024-01-27T01:03:32;7.00;;;3.90;;
25657;SDS011;13517;59.320;18.042;2024-01-27T01:05:57;5.35;;;3.40;;
25657;SDS011;13517;59.320;18.042;2024-01-27T01:08:23;5.38;;;3.28;;
25657;SDS011;13517;59.320;18.042;2024-01-27T01:10:48;8.85;;;3.92;;
25657;SDS011;13517;59.320;18.042;2024-01-27T01:13:14;12.55;;;4.80;;
25657;SDS011;13517;59.320;18.042;2024-01-27T01:15:39;13.77;;;4.78;;
25657;SDS011;13517;59.320;18.042;2024-01-27T01:18:05;12.45;;;5.00;;
25657;SDS011;13517;59.320;18.042;2024-01-27T01:20:30;19.33;;;5.07;;
25657;SDS011;13517;59.320;18.042;2024-01-27T01:22:57;15.93;;;5.78;;
25657;SDS011;13517;59.320;18.042;2024-01-27T01:25:23;13.90;;;5.10;;
25657;SDS011;13517;59.320;18.042;2024-01-27T01:27:48;15.38;;;6.18;;
25657;SDS011;13517;59.320;18.042;2024-01-27T01:30:15;12.10;;;5.75;;
25657;SDS011;13517;59.320;18.042;2024-01-27T01:32:41;11.27;;;4.72;;
25657;SDS011;13517;59.320;18.042;2024-01-27T01:35:07;11.18;;;4.57;;
25657;SDS011;13517;59.320;18.042;2024-01-27T01:37:34;10.05;;;4.57;;
25657;SDS011;13517;59.320;18.042;2024-01-27T01:40:00;11.93;;;4.80;;
25657;SDS011;13517;59.320;18.042;2024-01-27T01:42:25;13.13;;;5.70;;
25657;SDS011;13517;59.320;18.042;2024-01-27T01:44:51;15.18;;;6.03;;
25657;SDS011;13517;59.320;18.042;2024-01-27T01:47:17;19.02;;;5.93;;
25657;SDS011;13517;59.320;18.042;2024-01-27T01:49:43;15.20;;;6.07;;
25657;SDS011;13517;59.320;18.042;2024-01-27T01:52:08;15.95;;;6.13;;
25657;SDS011;13517;59.320;18.042;2024-01-27T01:54:34;15.93;;;6.45;;
25657;SDS011;13517;59.320;18.042;2024-01-27T01:57:00;16.08;;;7.10;;
25657;SDS011;13517;59.320;18.042;2024-01-27T01:59:25;16.27;;;6.75;;
25657;SDS011;13517;59.320;18.042;2024-01-27T02:01:51;18.48;;;7.63;;
25657;SDS011;13517;59.320;18.042;2024-01-27T02:04:16;18.60;;;7.68;;
25657;SDS011;13517;59.320;18.042;2024-01-27T02:06:42;19.33;;;7.38;;
25657;SDS011;13517;59.320;18.042;2024-01-27T02:09:07;17.48;;;6.85;;
25657;SDS011;13517;59.320;18.042;2024-01-27T02:11:34;17.67;;;6.93;;
25657;SDS011;13517;59.320;18.042;2024-01-27T02:14:00;16.92;;;7.15;;
25657;SDS011;13517;59.320;18.042;2024-01-27T02:16:25;18.25;;;7.95;;
25657;SDS011;13517;59.320;18.042;2024-01-27T02:18:51;19.42;;;7.65;;
25657;SDS011;13517;59.320;18.042;2024-01-27T02:21:16;21.67;;;8.23;;
25657;SDS011;13517;59.320;18.042;2024-01-27T02:23:42;21.35;;;8.43;;
25657;SDS011;13517;59.320;18.042;2024-01-27T02:26:07;14.43;;;6.97;;
25657;SDS011;13517;59.320;18.042;2024-01-27T02:28:33;15.52;;;7.13;;
25657;SDS011;13517;59.320;18.042;2024-01-27T02:30:58;18.52;;;7.55;;
25657;SDS011;13517;59.320;18.042;2024-01-27T02:33:28;19.85;;;7.75;;
25657;SDS011;13517;59.320;18.042;2024-01-27T02:35:54;17.60;;;7.15;;
25657;SDS011;13517;59.320;18.042;2024-01-27T02:38:19;19.17;;;7.70;;
25657;SDS011;13517;59.320;18.042;2024-01-27T02:40:45;18.38;;;7.72;;
25657;SDS011;13517;59.320;18.042;2024-01-27T02:43:10;19.27;;;8.02;;
25657;SDS011;13517;59.320;18.042;2024-01-27T02:45:36;20.42;;;8.48;;
25657;SDS011;13517;59.320;18.042;2024-01-27T02:48:01;21.60;;;8.57;;
25657;SDS011;13517;59.320;18.042;2024-01-27T02:50:27;16.33;;;7.20;;
25657;SDS011;13517;59.320;18.042;2024-01-27T02:52:52;13.50;;;5.93;;
25657;SDS011;13517;59.320;18.042;2024-01-27T02:55:17;17.02;;;7.03;;
25657;SDS011;13517;59.320;18.042;2024-01-27T02:57:43;13.32;;;5.13;;
25657;SDS011;13517;59.320;18.042;2024-01-27T03:00:08;11.45;;;5.15;;
25657;SDS011;13517;59.320;18.042;2024-01-27T03:02:34;5.85;;;3.80;;
25657;SDS011;13517;59.320;18.042;2024-01-27T03:05:00;7.65;;;3.45;;
25657;SDS011;13517;59.320;18.042;2024-01-27T03:07:25;6.18;;;2.78;;
25657;SDS011;13517;59.320;18.042;2024-01-27T03:09:51;4.35;;;2.30;;
25657;SDS011;13517;59.320;18.042;2024-01-27T03:12:16;3.83;;;2.75;;
25657;SDS011;13517;59.320;18.042;2024-01-27T03:14:43;3.40;;;2.40;;
25657;SDS011;13517;59.320;18.042;2024-01-27T03:17:08;4.32;;;2.60;;
25657;SDS011;13517;59.320;18.042;2024-01-27T03:19:34;4.82;;;2.28;;
25657;SDS011;13517;59.320;18.042;2024-01-27T03:21:59;6.57;;;2.78;;
25657;SDS011;13517;59.320;18.042;2024-01-27T03:24:25;2.88;;;2.30;;
25657;SDS011;13517;59.320;18.042;2024-01-27T03:26:50;2.50;;;2.08;;
25657;SDS011;13517;59.320;18.042;2024-01-27T03:29:15;2.85;;;2.10;;
25657;SDS011;13517;59.320;18.042;2024-01-27T03:31:41;2.38;;;1.92;;
25657;SDS011;13517;59.320;18.042;2024-01-27T03:34:07;2.45;;;2.08;;
25657;SDS011;13517;59.320;18.042;2024-01-27T03:36:32;2.22;;;1.80;;
25657;SDS011;13517;59.320;18.042;2024-01-27T03:38:58;2.22;;;1.60;;
25657;SDS011;13517;59.320;18.042;2024-01-27T03:41:24;1.63;;;1.52;;
25657;SDS011;13517;59.320;18.042;2024-01-27T03:43:49;2.15;;;1.45;;
25657;SDS011;13517;59.320;18.042;2024-01-27T03:46:15;3.28;;;1.40;;
25657;SDS011;13517;59.320;18.042;2024-01-27T03:48:40;2.80;;;1.70;;
25657;SDS011;13517;59.320;18.042;2024-01-27T03:51:06;2.20;;;1.70;;
25657;SDS011;13517;59.320;18.042;2024-01-27T03:53:32;2.28;;;1.65;;
25657;SDS011;13517;59.320;18.042;2024-01-27T03:55:57;1.83;;;1.55;;
25657;SDS011;13517;59.320;18.042;2024-01-27T03:58:29;2.20;;;1.75;;
25657;SDS011;13517;59.320;18.042;2024-01-27T04:00:56;2.45;;;1.70;;
25657;SDS011;13517;59.320;18.042;2024-01-27T04:03:21;2.13;;;1.70;;
25657;SDS011;13517;59.320;18.042;2024-01-27T04:05:47;4.10;;;2.10;;
25657;SDS011;13517;59.320;18.042;2024-01-27T04:08:12;2.60;;;2.00;;
25657;SDS011;13517;59.320;18.042;2024-01-27T04:10:38;2.10;;;1.70;;
25657;SDS011;13517;59.320;18.042;2024-01-27T04:13:03;1.98;;;1.77;;
25657;SDS011;13517;59.320;18.042;2024-01-27T04:15:29;1.75;;;1.60;;
25657;SDS011;13517;59.320;18.042;2024-01-27T04:17:55;2.92;;;2.08;;
25657;SDS011;13517;59.320;18.042;2024-01-27T04:20:20;2.22;;;1.63;;
25657;SDS011;13517;59.320;18.042;2024-01-27T04:22:46;3.92;;;1.50;;
25657;SDS011;13517;59.320;18.042;2024-01-27T04:25:12;1.42;;;1.20;;
25657;SDS011;13517;59.320;18.042;2024-01-27T04:27:38;1.58;;;1.40;;
25657;SDS011;13517;59.320;18.042;2024-01-27T04:30:07;1.50;;;1.40;;
25657;SDS011;13517;59.320;18.042;2024-01-27T04:32:33;2.15;;;1.77;;
25657;SDS011;13517;59.320;18.042;2024-01-27T04:34:59;2.53;;;1.73;;
25657;SDS011;13517;59.320;18.042;2024-01-27T04:37:24;2.70;;;1.67;;
25657;SDS011;13517;59.320;18.042;2024-01-27T04:39:50;3.75;;;2.08;;
25657;SDS011;13517;59.320;18.042;2024-01-27T04:42:16;2.55;;;1.90;;
25657;SDS011;13517;59.320;18.042;2024-01-27T04:44:41;4.13;;;2.17;;
25657;SDS011;13517;59.320;18.042;2024-01-27T04:47:07;2.55;;;2.10;;
25657;SDS011;13517;59.320;18.042;2024-01-27T04:49:32;4.43;;;2.20;;
25657;SDS011;13517;59.320;18.042;2024-01-27T04:51:58;2.42;;;1.80;;
25657;SDS011;13517;59.320;18.042;2024-01-27T04:54:23;3.03;;;2.03;;
25657;SDS011;13517;59.320;18.042;2024-01-27T04:56:48;2.33;;;1.98;;
25657;SDS011;13517;59.320;18.042;2024-01-27T04:59:14;2.08;;;1.77;;
25657;SDS011;13517;59.320;18.042;2024-01-27T05:01:39;2.20;;;1.70;;
25657;SDS011;13517;59.320;18.042;2024-01-27T05:04:04;3.78;;;2.20;;
25657;SDS011;13517;59.320;18.042;2024-01-27T05:06:30;1.95;;;1.42;;
25657;SDS011;13517;59.320;18.042;2024-01-27T05:08:55;2.35;;;1.73;;
25657;SDS011;13517;59.320;18.042;2024-01-27T05:11:30;2.58;;;1.50;;
25657;SDS011;13517;59.320;18.042;2024-01-27T05:13:57;2.03;;;1.55;;
25657;SDS011;13517;59.320;18.042;2024-01-27T05:16:23;2.88;;;1.85;;
25657;SDS011;13517;59.320;18.042;2024-01-27T05:18:49;2.83;;;2.33;;
25657;SDS011;13517;59.320;18.042;2024-01-27T05:21:14;3.03;;;1.38;;
25657;SDS011;13517;59.320;18.042;2024-01-27T05:23:40;1.98;;;1.35;;
25657;SDS011;13517;59.320;18.042;2024-01-27T05:26:06;2.45;;;1.60;;
25657;SDS011;13517;59.320;18.042;2024-01-27T05:28:31;2.35;;;1.60;;
25657;SDS011;13517;59.320;18.042;2024-01-27T05:30:57;1.85;;;1.40;;
25657;SDS011;13517;59.320;18.042;2024-01-27T05:33:22;2.03;;;1.45;;
25657;SDS011;13517;59.320;18.042;2024-01-27T05:35:48;1.77;;;1.25;;
25657;SDS011;13517;59.320;18.042;2024-01-27T05:38:14;1.75;;;1.35;;
25657;SDS011;13517;59.320;18.042;2024-01-27T05:40:39;4.03;;;1.50;;
25657;SDS011;13517;59.320;18.042;2024-01-27T05:43:05;1.83;;;1.35;;
25657;SDS011;13517;59.320;18.042;2024-01-27T05:45:30;1.48;;;1.23;;
25657;SDS011;13517;59.320;18.042;2024-01-27T05:47:56;2.05;;;1.38;;
25657;SDS011;13517;59.320;18.042;2024-01-27T05:50:22;2.45;;;1.58;;
25657;SDS011;13517;59.320;18.042;2024-01-27T05:52:47;2.42;;;1.50;;
25657;SDS011;13517;59.320;18.042;2024-01-27T05:55:12;1.35;;;1.23;;
25657;SDS011;13517;59.320;18.042;2024-01-27T05:57:38;2.40;;;1.60;;
25657;SDS011;13517;59.320;18.042;2024-01-27T06:00:04;1.63;;;1.20;;
25657;SDS011;13517;59.320;18.042;2024-01-27T06:02:30;1.98;;;1.63;;
25657;SDS011;13517;59.320;18.042;2024-01-27T06:04:56;1.80;;;1.60;;
25657;SDS011;13517;59.320;18.042;2024-01-27T06:07:21;3.38;;;1.83;;
25657;SDS011;13517;59.320;18.042;2024-01-27T06:09:47;2.22;;;1.75;;
25657;SDS011;13517;59.320;18.042;2024-01-27T06:12:12;2.25;;;1.42;;
25657;SDS011;13517;59.320;18.042;2024-01-27T06:14:37;3.60;;;1.60;;
25657;SDS011;13517;59.320;18.042;2024-01-27T06:17:06;1.95;;;1.55;;
25657;SDS011;13517;59.320;18.042;2024-01-27T06:19:31;5.78;;;1.45;;
25657;SDS011;13517;59.320;18.042;2024-01-27T06:21:57;2.28;;;1.58;;
25657;SDS011;13517;59.320;18.042;2024-01-27T06:24:22;2.20;;;1.40;;
25657;SDS011;13517;59.320;18.042;2024-01-27T06:26:47;2.72;;;1.70;;
25657;SDS011;13517;59.320;18.042;2024-01-27T06:29:13;2.50;;;1.30;;
25657;SDS011;13517;59.320;18.042;2024-01-27T06:31:39;2.13;;;1.77;;
25657;SDS011;13517;59.320;18.042;2024-01-27T06:34:04;3.35;;;1.45;;
25657;SDS011;13517;59.320;18.042;2024-01-27T06:36:29;2.58;;;1.50;;
25657;SDS011;13517;59.320;18.042;2024-01-27T06:38:55;3.42;;;1.40;;
25657;SDS011;13517;59.320;18.042;2024-01-27T06:41:21;1.92;;;1.30;;
25657;SDS011;13517;59.320;18.042;2024-01-27T06:43:47;4.60;;;1.77;;
25657;SDS011;13517;59.320;18.042;2024-01-27T06:46:12;2.22;;;1.45;;
25657;SDS011;13517;59.320;18.042;2024-01-27T06:48:38;1.80;;;1.40;;
25657;SDS011;13517;59.320;18.042;2024-01-27T06:51:03;3.22;;;1.92;;
25657;SDS011;13517;59.320;18.042;2024-01-27T06:53:30;2.22;;;1.50;;
25657;SDS011;13517;59.320;18.042;2024-01-27T06:55:55;4.47;;;1.30;;
25657;SDS011;13517;59.320;18.042;2024-01-27T06:58:20;2.92;;;1.55;;
25657;SDS011;13517;59.320;18.042;2024-01-27T07:00:46;2.38;;;1.40;;
25657;SDS011;13517;59.320;18.042;2024-01-27T07:03:11;3.65;;;1.52;;
25657;SDS011;13517;59.320;18.042;2024-01-27T07:05:37;2.25;;;1.50;;
25657;SDS011;13517;59.320;18.042;2024-01-27T07:08:05;2.95;;;1.58;;
25657;SDS011;13517;59.320;18.042;2024-01-27T07:10:31;4.05;;;1.73;;
25657;SDS011;13517;59.320;18.042;2024-01-27T07:12:56;4.03;;;1.83;;
25657;SDS011;13517;59.320;18.042;2024-01-27T07:15:22;4.40;;;1.90;;
25657;SDS011;13517;59.320;18.042;2024-01-27T07:17:48;2.47;;;1.67;;
25657;SDS011;13517;59.320;18.042;2024-01-27T07:20:14;3.67;;;1.80;;
25657;SDS011;13517;59.320;18.042;2024-01-27T07:22:39;3.70;;;1.65;;
25657;SDS011;13517;59.320;18.042;2024-01-27T07:25:05;4.82;;;1.90;;
25657;SDS011;13517;59.320;18.042;2024-01-27T07:27:32;2.35;;;1.58;;
25657;SDS011;13517;59.320;18.042;2024-01-27T07:29:57;2.08;;;1.58;;
25657;SDS011;13517;59.320;18.042;2024-01-27T07:32:22;4.93;;;1.58;;
25657;SDS011;13517;59.320;18.042;2024-01-27T07:34:48;3.85;;;1.70;;
25657;SDS011;13517;59.320;18.042;2024-01-27T07:37:13;10.55;;;1.77;;
25657;SDS011;13517;59.320;18.042;2024-01-27T07:39:39;3.88;;;1.77;;
25657;SDS011;13517;59.320;18.042;2024-01-27T07:42:04;3.13;;;1.40;;
25657;SDS011;13517;59.320;18.042;2024-01-27T07:44:29;3.80;;;1.88;;
25657;SDS011;13517;59.320;18.042;2024-01-27T07:46:55;5.32;;;3.15;;
25657;SDS011;13517;59.320;18.042;2024-01-27T07:49:21;4.75;;;2.17;;
25657;SDS011;13517;59.320;18.042;2024-01-27T07:51:46;6.80;;;1.83;;
25657;SDS011;13517;59.320;18.042;2024-01-27T07:54:11;5.18;;;2.00;;
25657;SDS011;13517;59.320;18.042;2024-01-27T07:56:37;3.22;;;1.77;;
25657;SDS011;13517;59.320;18.042;2024-01-27T07:59:03;2.90;;;1.60;;
25657;SDS011;13517;59.320;18.042;2024-01-27T08:01:28;6.63;;;1.85;;
25657;SDS011;13517;59.320;18.042;2024-01-27T08:03:54;9.65;;;1.95;;
25657;SDS011;13517;59.320;18.042;2024-01-27T08:06:22;7.07;;;2.08;;
25657;SDS011;13517;59.320;18.042;2024-01-27T08:08:52;6.55;;;1.52;;
25657;SDS011;13517;59.320;18.042;2024-01-27T08:11:18;7.95;;;2.00;;
25657;SDS011;13517;59.320;18.042;2024-01-27T08:13:43;2.28;;;1.65;;
25657;SDS011;13517;59.320;18.042;2024-01-27T08:16:09;5.57;;;1.77;;
25657;SDS011;13517;59.320;18.042;2024-01-27T08:18:37;5.75;;;1.63;;
25657;SDS011;13517;59.320;18.042;2024-01-27T08:21:04;10.40;;;2.63;;
25657;SDS011;13517;59.320;18.042;2024-01-27T08:23:29;4.80;;;1.45;;
25657;SDS011;13517;59.320;18.042;2024-01-27T08:25:55;5.88;;;1.45;;
25657;SDS011;13517;59.320;18.042;2024-01-27T08:28:20;8.25;;;1.88;;
25657;SDS011;13517;59.320;18.042;2024-01-27T08:30:46;4.75;;;1.85;;
25657;SDS011;13517;59.320;18.042;2024-01-27T08:33:12;3.97;;;1.95;;
25657;SDS011;13517;59.320;18.042;2024-01-27T08:35:37;7.07;;;1.70;;
25657;SDS011;13517;59.320;18.042;2024-01-27T08:38:03;7.63;;;1.50;;
25657;SDS011;13517;59.320;18.042;2024-01-27T08:40:29;7.60;;;2.03;;
25657;SDS011;13517;59.320;18.042;2024-01-27T08:42:55;9.63;;;1.67;;
25657;SDS011;13517;59.320;18.042;2024-01-27T08:45:20;10.43;;;1.35;;
25657;SDS011;13517;59.320;18.042;2024-01-27T08:47:46;7.55;;;1.52;;
25657;SDS011;13517;59.320;18.042;2024-01-27T08:50:11;7.88;;;1.65;;
25657;SDS011;13517;59.320;18.042;2024-01-27T08:52:37;9.05;;;1.45;;
25657;SDS011;13517;59.320;18.042;2024-01-27T08:55:02;5.13;;;1.75;;
25657;SDS011;13517;59.320;18.042;2024-01-27T08:57:29;8.40;;;2.22;;
25657;SDS011;13517;59.320;18.042;2024-01-27T08:59:54;7.35;;;1.80;;
25657;SDS011;13517;59.320;18.042;2024-01-27T09:02:20;12.48;;;2.30;;
25657;SDS011;13517;59.320;18.042;2024-01-27T09:04:45;9.73;;;2.17;;
25657;SDS011;13517;59.320;18.042;2024-01-27T09:07:11;8.45;;;1.73;;
25657;SDS011;13517;59.320;18.042;2024-01-27T09:09:37;4.55;;;1.65;;
25657;SDS011;13517;59.320;18.042;2024-01-27T09:12:04;6.20;;;1.80;;
25657;SDS011;13517;59.320;18.042;2024-01-27T09:14:29;13.52;;;2.97;;
25657;SDS011;13517;59.320;18.042;2024-01-27T09:16:55;10.18;;;1.90;;
25657;SDS011;13517;59.320;18.042;2024-01-27T09:19:20;7.00;;;2.25;;
25657;SDS011;13517;59.320;18.042;2024-01-27T09:21:45;13.55;;;2.05;;
25657;SDS011;13517;59.320;18.042;2024-01-27T09:24:11;15.48;;;2.53;;
25657;SDS011;13517;59.320;18.042;2024-01-27T09:26:37;9.60;;;2.25;;
25657;SDS011;13517;59.320;18.042;2024-01-27T09:29:02;9.75;;;2.58;;
25657;SDS011;13517;59.320;18.042;2024-01-27T09:31:28;24.85;;;2.35;;
25657;SDS011;13517;59.320;18.042;2024-01-27T09:33:53;11.25;;;2.22;;
25657;SDS011;13517;59.320;18.042;2024-01-27T09:36:19;6.75;;;1.95;;
25657;SDS011;13517;59.320;18.042;2024-01-27T09:38:45;12.00;;;2.03;;
25657;SDS011;13517;59.320;18.042;2024-01-27T09:41:15;6.38;;;2.13;;
25657;SDS011;13517;59.320;18.042;2024-01-27T09:43:44;18.73;;;2.20;;
25657;SDS011;13517;59.320;18.042;2024-01-27T09:46:14;12.68;;;2.30;;
25657;SDS011;13517;59.320;18.042;2024-01-27T09:48:40;9.25;;;3.38;;
25657;SDS011;13517;59.320;18.042;2024-01-27T09:51:07;5.40;;;1.90;;
25657;SDS011;13517;59.320;18.042;2024-01-27T09:53:33;11.18;;;1.80;;
25657;SDS011;13517;59.320;18.042;2024-01-27T09:56:00;10.98;;;2.30;;
25657;SDS011;13517;59.320;18.042;2024-01-27T09:58:29;6.63;;;1.98;;
25657;SDS011;13517;59.320;18.042;2024-01-27T10:00:56;7.28;;;1.65;;
25657;SDS011;13517;59.320;18.042;2024-01-27T10:03:26;7.28;;;1.90;;
25657;SDS011;13517;59.320;18.042;2024-01-27T10:05:53;7.22;;;3.05;;
25657;SDS011;13517;59.320;18.042;2024-01-27T10:08:20;13.35;;;1.88;;
25657;SDS011;13517;59.320;18.042;2024-01-27T10:10:47;7.35;;;1.35;;
25657;SDS011;13517;59.320;18.042;2024-01-27T10:13:13;13.43;;;2.50;;
25657;SDS011;13517;59.320;18.042;2024-01-27T10:15:42;7.72;;;1.65;;
25657;SDS011;13517;59.320;18.042;2024-01-27T10:18:08;7.65;;;1.73;;
25657;SDS011;13517;59.320;18.042;2024-01-27T10:20:38;8.60;;;1.88;;
25657;SDS011;13517;59.320;18.042;2024-01-27T10:23:13;6.28;;;1.65;;
25657;SDS011;13517;59.320;18.042;2024-01-27T10:25:39;9.10;;;1.95;;
25657;SDS011;13517;59.320;18.042;2024-01-27T10:28:06;9.32;;;2.58;;
25657;SDS011;13517;59.320;18.042;2024-01-27T10:30:33;12.30;;;2.42;;
25657;SDS011;13517;59.320;18.042;2024-01-27T10:32:58;9.90;;;2.00;;
25657;SDS011;13517;59.320;18.042;2024-01-27T10:35:24;14.55;;;2.17;;
25657;SDS011;13517;59.320;18.042;2024-01-27T10:37:54;8.57;;;1.58;;
25657;SDS011;13517;59.320;18.042;2024-01-27T10:40:20;13.25;;;1.75;;
25657;SDS011;13517;59.320;18.042;2024-01-27T10:42:51;12.10;;;2.40;;
25657;SDS011;13517;59.320;18.042;2024-01-27T10:45:35;6.65;;;2.00;;
25657;SDS011;13517;59.320;18.042;2024-01-27T10:48:05;10.52;;;2.70;;
25657;SDS011;13517;59.320;18.042;2024-01-27T10:50:35;9.10;;;1.67;;
25657;SDS011;13517;59.320;18.042;2024-01-27T10:53:03;6.88;;;1.70;;
25657;SDS011;13517;59.320;18.042;2024-01-27T10:55:31;8.20;;;2.15;;
25657;SDS011;13517;59.320;18.042;2024-01-27T10:58:00;10.35;;;1.95;;
25657;SDS011;13517;59.320;18.042;2024-01-27T11:00:27;7.20;;;1.70;;
25657;SDS011;13517;59.320;18.042;2024-01-27T11:02:53;13.13;;;2.30;;
25657;SDS011;13517;59.320;18.042;2024-01-27T11:05:24;9.88;;;2.17;;
25657;SDS011;13517;59.320;18.042;2024-01-27T11:07:49;7.55;;;2.30;;
25657;SDS011;13517;59.320;18.042;2024-01-27T11:10:17;9.45;;;1.95;;
25657;SDS011;13517;59.320;18.042;2024-01-27T11:12:42;16.17;;;2.53;;
25657;SDS011;13517;59.320;18.042;2024-01-27T11:15:09;12.35;;;2.70;;
25657;SDS011;13517;59.320;18.042;2024-01-27T11:17:40;12.40;;;2.63;;
25657;SDS011;13517;59.320;18.042;2024-01-27T11:20:09;7.50;;;1.60;;
25657;SDS011;13517;59.320;18.042;2024-01-27T11:22:36;8.43;;;1.90;;
25657;SDS011;13517;59.320;18.042;2024-01-27T11:27:38;5.50;;;1.50;;
25657;SDS011;13517;59.320;18.042;2024-01-27T11:30:04;10.75;;;1.75;;
25657;SDS011;13517;59.320;18.042;2024-01-27T11:32:30;9.63;;;1.65;;
25657;SDS011;13517;59.320;18.042;2024-01-27T11:34:56;5.65;;;1.70;;
25657;SDS011;13517;59.320;18.042;2024-01-27T11:37:22;11.55;;;1.52;;
25657;SDS011;13517;59.320;18.042;2024-01-27T11:39:51;8.55;;;1.40;;
25657;SDS011;13517;59.320;18.042;2024-01-27T11:42:17;8.80;;;1.80;;
25657;SDS011;13517;59.320;18.042;2024-01-27T11:44:43;13.93;;;1.92;;
25657;SDS011;13517;59.320;18.042;2024-01-27T11:47:16;17.38;;;2.25;;
25657;SDS011;13517;59.320;18.042;2024-01-27T11:49:44;10.27;;;1.90;;
25657;SDS011;13517;59.320;18.042;2024-01-27T11:52:20;9.27;;;1.52;;
25657;SDS011;13517;59.320;18.042;2024-01-27T11:54:46;6.13;;;1.63;;
25657;SDS011;13517;59.320;18.042;2024-01-27T11:57:19;9.02;;;1.77;;
25657;SDS011;13517;59.320;18.042;2024-01-27T11:59:44;8.77;;;2.13;;
25657;SDS011;13517;59.320;18.042;2024-01-27T12:02:09;9.13;;;1.30;;
25657;SDS011;13517;59.320;18.042;2024-01-27T12:04:35;6.18;;;1.65;;
25657;SDS011;13517;59.320;18.042;2024-01-27T12:07:01;13.18;;;2.50;;
25657;SDS011;13517;59.320;18.042;2024-01-27T12:09:27;4.90;;;1.60;;
25657;SDS011;13517;59.320;18.042;2024-01-27T12:11:52;9.45;;;1.90;;
25657;SDS011;13517;59.320;18.042;2024-01-27T12:14:18;8.20;;;1.80;;
25657;SDS011;13517;59.320;18.042;2024-01-27T12:16:44;10.25;;;1.70;;
25657;SDS011;13517;59.320;18.042;2024-01-27T12:19:10;5.45;;;1.52;;
25657;SDS011;13517;59.320;18.042;2024-01-27T12:21:36;16.17;;;2.08;;
25657;SDS011;13517;59.320;18.042;2024-01-27T12:24:02;7.28;;;1.80;;
25657;SDS011;13517;59.320;18.042;2024-01-27T12:26:28;13.70;;;1.73;;
25657;SDS011;13517;59.320;18.042;2024-01-27T12:28:54;16.02;;;4.00;;
25657;SDS011;13517;59.320;18.042;2024-01-27T12:31:21;9.30;;;2.13;;
25657;SDS011;13517;59.320;18.042;2024-01-27T12:33:51;12.93;;;2.38;;
25657;SDS011;13517;59.320;18.042;2024-01-27T12:36:18;11.27;;;2.97;;
25657;SDS011;13517;59.320;18.042;2024-01-27T12:38:57;11.82;;;1.88;;
25657;SDS011;13517;59.320;18.042;2024-01-27T12:41:24;16.50;;;2.70;;
25657;SDS011;13517;59.320;18.042;2024-01-27T12:43:51;13.57;;;1.77;;
25657;SDS011;13517;59.320;18.042;2024-01-27T12:46:17;8.55;;;1.83;;
25657;SDS011;13517;59.320;18.042;2024-01-27T12:48:44;10.73;;;2.00;;
25657;SDS011;13517;59.320;18.042;2024-01-27T12:51:10;9.27;;;2.10;;
25657;SDS011;13517;59.320;18.042;2024-01-27T12:53:37;8.98;;;1.75;;
25657;SDS011;13517;59.320;18.042;2024-01-27T12:56:06;10.30;;;1.50;;
25657;SDS011;13517;59.320;18.042;2024-01-27T12:58:32;6.43;;;1.73;;
25657;SDS011;13517;59.320;18.042;2024-01-27T13:00:58;10.90;;;2.25;;
25657;SDS011;13517;59.320;18.042;2024-01-27T13:03:23;9.00;;;1.95;;
25657;SDS011;13517;59.320;18.042;2024-01-27T13:05:49;15.52;;;2.20;;
25657;SDS011;13517;59.320;18.042;2024-01-27T13:08:14;19.08;;;4.60;;
25657;SDS011;13517;59.320;18.042;2024-01-27T13:10:39;20.35;;;6.07;;
25657;SDS011;13517;59.320;18.042;2024-01-27T13:13:05;12.30;;;4.40;;
25657;SDS011;13517;59.320;18.042;2024-01-27T13:15:30;21.52;;;4.03;;
25657;SDS011;13517;59.320;18.042;2024-01-27T13:17:55;21.00;;;5.25;;
25657;SDS011;13517;59.320;18.042;2024-01-27T13:20:21;15.20;;;2.70;;
25657;SDS011;13517;59.320;18.042;2024-01-27T13:22:46;13.80;;;2.42;;
25657;SDS011;13517;59.320;18.042;2024-01-27T13:25:12;11.38;;;2.60;;
25657;SDS011;13517;59.320;18.042;2024-01-27T13:27:37;10.25;;;2.35;;
25657;SDS011;13517;59.320;18.042;2024-01-27T13:30:03;9.35;;;2.60;;
25657;SDS011;13517;59.320;18.042;2024-01-27T13:32:29;10.05;;;2.20;;
25657;SDS011;13517;59.320;18.042;2024-01-27T13:34:54;10.05;;;2.20;;
25657;SDS011;13517;59.320;18.042;2024-01-27T13:37:20;11.10;;;2.60;;
25657;SDS011;13517;59.320;18.042;2024-01-27T13:39:45;12.75;;;2.30;;
25657;SDS011;13517;59.320;18.042;2024-01-27T13:42:11;24.20;;;2.90;;
25657;SDS011;13517;59.320;18.042;2024-01-27T13:44:36;8.70;;;2.10;;
25657;SDS011;13517;59.320;18.042;2024-01-27T13:47:02;13.98;;;2.55;;
25657;SDS011;13517;59.320;18.042;2024-01-27T13:49:29;10.48;;;2.22;;
25657;SDS011;13517;59.320;18.042;2024-01-27T13:51:56;18.30;;;2.58;;
25657;SDS011;13517;59.320;18.042;2024-01-27T13:54:21;30.63;;;3.20;;
25657;SDS011;13517;59.320;18.042;2024-01-27T13:56:47;11.13;;;2.47;;
25657;SDS011;13517;59.320;18.042;2024-01-27T13:59:12;12.88;;;2.63;;
25657;SDS011;13517;59.320;18.042;2024-01-27T14:01:37;15.13;;;2.85;;
25657;SDS011;13517;59.320;18.042;2024-01-27T14:04:03;18.10;;;3.08;;
25657;SDS011;13517;59.320;18.042;2024-01-27T14:06:28;20.73;;;2.92;;
25657;SDS011;13517;59.320;18.042;2024-01-27T14:08:54;10.48;;;2.28;;
25657;SDS011;13517;59.320;18.042;2024-01-27T14:11:19;7.63;;;2.55;;
25657;SDS011;13517;59.320;18.042;2024-01-27T14:13:46;15.15;;;2.72;;
25657;SDS011;13517;59.320;18.042;2024-01-27T14:16:11;8.90;;;2.38;;
25657;SDS011;13517;59.320;18.042;2024-01-27T14:18:37;11.65;;;4.03;;
25657;SDS011;13517;59.320;18.042;2024-01-27T14:21:02;19.65;;;3.33;;
25657;SDS011;13517;59.320;18.042;2024-01-27T14:23:28;19.27;;;3.47;;
25657;SDS011;13517;59.320;18.042;2024-01-27T14:25:53;20.25;;;3.70;;